Time;durP1;ratioP1;P1;durP2;ratioP2;P2;SDS_P1;SDS_P2;PMS_P1;PMS_P2;Temp;Humidity;BMP_temperature;BMP_pressure;BME280_temperature;BME280_humidity;BME280_pressure;Samples;Min_cycle;Max_cycle;Signal;HPM_P1;HPM_P2
2023/08/30 00:00:45;;;;;;;4.55;2.40;;;10.30;99.90;;;;;;5015432;28;20273;-81
2023/08/30 00:03:12;;;;;;;0.50;0.50;;;10.30;99.90;;;;;;5015468;28;20689;-81
2023/08/30 00:05:41;;;;;;;0.50;0.50;;;10.30;99.90;;;;;;5015100;28;20599;-81
2023/08/30 00:08:08;;;;;;;0.60;0.60;;;10.30;99.90;;;;;;5015373;28;20260;-81
2023/08/30 00:10:34;;;;;;;0.50;0.50;;;10.30;99.90;;;;;;5013709;28;20195;-81
2023/08/30 00:12:59;;;;;;;0.60;0.60;;;10.30;99.90;;;;;;5030558;28;20673;-81
2023/08/30 00:15:25;;;;;;;0.45;0.45;;;10.30;99.90;;;;;;5030213;28;20669;-81
2023/08/30 00:17:53;;;;;;;0.63;0.63;;;10.30;99.90;;;;;;5013820;28;20191;-81
2023/08/30 00:20:20;;;;;;;0.60;0.60;;;10.30;99.90;;;;;;5015261;28;20195;-81
2023/08/30 00:22:46;;;;;;;1.42;1.05;;;10.30;99.90;;;;;;5013719;28;20631;-81
2023/08/30 00:25:11;;;;;;;0.65;0.65;;;10.20;99.90;;;;;;5014608;28;20206;-82
2023/08/30 00:27:37;;;;;;;0.60;0.60;;;10.20;99.90;;;;;;5015018;28;20199;-82
2023/08/30 00:30:03;;;;;;;0.50;0.50;;;10.10;99.90;;;;;;5014683;28;20219;-81
2023/08/30 00:32:29;;;;;;;0.60;0.60;;;10.10;99.90;;;;;;5013357;28;20230;-82
2023/08/30 00:34:55;;;;;;;0.50;0.50;;;10.00;99.90;;;;;;5014804;28;20221;-82
2023/08/30 00:37:20;;;;;;;0.75;0.75;;;10.00;99.90;;;;;;5014628;28;20218;-82
2023/08/30 00:39:46;;;;;;;0.80;0.80;;;9.90;99.90;;;;;;5013322;28;20227;-82
2023/08/30 00:42:12;;;;;;;0.60;0.60;;;9.90;99.90;;;;;;5028445;28;20201;-81
2023/08/30 00:44:37;;;;;;;0.55;0.55;;;9.90;99.90;;;;;;5014494;28;20225;-81
2023/08/30 00:47:03;;;;;;;0.60;0.60;;;9.80;99.90;;;;;;5029783;28;20194;-84
2023/08/30 00:49:31;;;;;;;0.80;0.80;;;9.80;99.90;;;;;;5012943;28;20221;-83
2023/08/30 00:52:01;;;;;;;0.75;0.75;;;9.70;99.90;;;;;;5014565;28;20229;-82
2023/08/30 00:54:27;;;;;;;0.60;0.60;;;9.70;99.90;;;;;;5014238;28;20614;-82
2023/08/30 00:56:54;;;;;;;0.55;0.55;;;9.70;99.90;;;;;;5014423;28;20214;-82
2023/08/30 00:59:20;;;;;;;0.60;0.60;;;9.70;99.90;;;;;;5014326;28;20210;-81
2023/08/30 01:01:46;;;;;;;0.60;0.60;;;9.70;99.90;;;;;;5057900;22;20232;-72
2023/08/30 01:04:11;;;;;;;0.50;0.50;;;9.80;99.90;;;;;;5056354;28;20200;-72
2023/08/30 01:06:37;;;;;;;0.50;0.50;;;9.80;99.90;;;;;;5074308;28;20189;-72
2023/08/30 01:09:03;;;;;;;0.60;0.60;;;9.90;99.90;;;;;;5074076;28;20204;-72
2023/08/30 01:11:54;;;;;;;0.60;0.60;;;10.00;99.90;;;;;;5055940;28;20250;-72
2023/08/30 01:14:30;;;;;;;0.50;0.50;;;10.10;99.90;;;;;;5072808;28;20295;-72
2023/08/30 01:16:57;;;;;;;0.57;0.57;;;10.20;99.90;;;;;;5056311;28;20249;-72
2023/08/30 01:20:11;;;;;;;0.50;0.50;;;10.30;99.90;;;;;;5073697;28;20197;-72
2023/08/30 01:23:05;;;;;;;0.50;0.50;;;10.40;99.90;;;;;;5047714;28;20678;-72
2023/08/30 01:25:54;;;;;;;0.55;0.55;;;10.40;99.90;;;;;;5074384;28;20685;-72
2023/08/30 01:28:23;;;;;;;0.60;0.60;;;10.40;99.90;;;;;;5073931;28;20200;-72
2023/08/30 01:30:50;;;;;;;0.50;0.50;;;10.50;99.90;;;;;;5073976;28;20674;-72
2023/08/30 01:33:17;;;;;;;0.60;0.60;;;10.50;99.90;;;;;;5074303;28;20547;-72
2023/08/30 01:35:43;;;;;;;0.50;0.50;;;10.50;99.90;;;;;;5087493;28;20196;-72
2023/08/30 01:38:10;;;;;;;0.60;0.60;;;10.50;99.90;;;;;;5073873;28;20192;-73
2023/08/30 01:40:39;;;;;;;0.60;0.60;;;10.50;99.90;;;;;;5074008;28;20189;-72
2023/08/30 01:43:07;;;;;;;0.60;0.60;;;10.50;99.90;;;;;;5056034;28;20280;-73
2023/08/30 01:45:40;;;;;;;0.60;0.60;;;10.50;99.90;;;;;;5055851;28;20237;-73
2023/08/30 01:48:09;;;;;;;0.60;0.60;;;10.40;99.90;;;;;;5073961;28;20189;-71
2023/08/30 01:50:35;;;;;;;0.60;0.60;;;10.50;99.90;;;;;;5055819;28;20197;-72
2023/08/30 01:53:02;;;;;;;0.52;0.52;;;10.50;99.90;;;;;;5055587;28;20663;-72
2023/08/30 01:55:29;;;;;;;0.50;0.50;;;10.50;99.90;;;;;;5073885;28;20647;-72
2023/08/30 01:57:55;;;;;;;0.50;0.50;;;10.40;99.90;;;;;;5072122;28;20224;-73
2023/08/30 02:00:21;;;;;;;0.50;0.50;;;10.40;99.90;;;;;;5055013;28;20254;-72
2023/08/30 02:02:48;;;;;;;0.60;0.60;;;10.40;99.90;;;;;;5072127;28;20229;-72
2023/08/30 02:05:13;;;;;;;0.50;0.50;;;10.40;99.90;;;;;;5073749;28;20276;-72
2023/08/30 02:08:19;;;;;;;0.60;0.60;;;10.40;99.90;;;;;;5084029;28;20297;-72
2023/08/30 02:11:02;;;;;;;0.70;0.70;;;10.40;99.90;;;;;;5070046;28;20260;-72
2023/08/30 02:13:30;;;;;;;0.60;0.60;;;10.50;99.90;;;;;;5072817;28;20662;-75
2023/08/30 02:15:56;;;;;;;0.60;0.60;;;10.50;99.90;;;;;;5072512;28;20663;-76
2023/08/30 02:18:24;;;;;;;0.65;0.65;;;10.50;99.90;;;;;;5073155;28;20204;-76
2023/08/30 02:20:49;;;;;;;0.60;0.60;;;10.60;99.90;;;;;;5073561;28;20200;-76
2023/08/30 02:23:15;;;;;;;0.60;0.60;;;10.60;99.90;;;;;;5073610;28;20197;-76
2023/08/30 02:25:41;;;;;;;0.50;0.50;;;10.70;99.90;;;;;;5072924;28;20200;-76
2023/08/30 02:28:06;;;;;;;0.60;0.60;;;10.70;99.90;;;;;;5073461;28;20227;-76
2023/08/30 02:30:32;;;;;;;0.50;0.50;;;10.80;99.90;;;;;;5072941;28;20192;-76
2023/08/30 02:32:58;;;;;;;0.50;0.50;;;10.90;99.90;;;;;;5072716;28;20233;-76
2023/08/30 02:35:23;;;;;;;0.50;0.50;;;10.90;99.90;;;;;;5066898;28;20188;-77
2023/08/30 02:37:49;;;;;;;0.50;0.50;;;10.90;99.90;;;;;;5072861;28;20396;-76
2023/08/30 02:40:15;;;;;;;0.50;0.50;;;11.00;99.90;;;;;;5055200;28;20205;-77
2023/08/30 02:42:40;;;;;;;0.50;0.50;;;11.00;99.90;;;;;;5072709;28;20238;-76
2023/08/30 02:45:07;;;;;;;0.60;0.60;;;11.00;99.90;;;;;;5072920;28;20536;-76
2023/08/30 02:47:32;;;;;;;0.40;0.40;;;11.10;99.90;;;;;;5054993;28;20679;-77
2023/08/30 02:49:58;;;;;;;0.75;0.75;;;11.10;99.90;;;;;;5072521;28;20239;-76
2023/08/30 02:52:24;;;;;;;1.50;1.40;;;11.10;99.90;;;;;;5072297;28;20197;-76
2023/08/30 02:54:49;;;;;;;0.50;0.50;;;11.10;99.90;;;;;;5054968;28;20207;-76
2023/08/30 02:57:15;;;;;;;0.50;0.50;;;11.10;99.90;;;;;;5072958;28;20196;-77
2023/08/30 02:59:40;;;;;;;0.50;0.50;;;11.20;99.90;;;;;;5054510;28;20221;-76
2023/08/30 03:02:06;;;;;;;5.47;1.58;;;11.20;99.90;;;;;;5071202;28;20233;-76
2023/08/30 03:04:32;;;;;;;0.50;0.50;;;11.30;99.90;;;;;;5054879;28;20200;-76
2023/08/30 03:06:57;;;;;;;0.60;0.60;;;11.30;99.90;;;;;;5075727;28;20197;-76
2023/08/30 03:09:23;;;;;;;0.60;0.60;;;11.30;99.90;;;;;;5076441;28;20208;-77
2023/08/30 03:11:49;;;;;;;0.50;0.50;;;11.30;99.90;;;;;;5074951;28;20584;-77
2023/08/30 03:14:16;;;;;;;0.50;0.50;;;11.30;99.90;;;;;;5076362;28;20234;-77
2023/08/30 03:16:42;;;;;;;0.68;0.68;;;11.40;99.90;;;;;;5076877;28;20185;-77
2023/08/30 03:19:08;;;;;;;0.43;0.43;;;11.40;99.90;;;;;;5075337;28;20296;-76
2023/08/30 03:21:34;;;;;;;0.60;0.60;;;11.40;99.90;;;;;;5075477;28;20247;-73
2023/08/30 03:23:59;;;;;;;0.30;0.30;;;11.40;99.90;;;;;;5076614;28;20196;-73
2023/08/30 03:26:25;;;;;;;0.50;0.50;;;11.40;99.90;;;;;;5078784;28;20244;-73
2023/08/30 03:28:51;;;;;;;1.98;0.80;;;11.40;99.90;;;;;;5055941;28;20216;-72
2023/08/30 03:31:21;;;;;;;0.50;0.50;;;11.40;99.90;;;;;;5075320;28;20189;-72
2023/08/30 03:33:49;;;;;;;0.50;0.50;;;11.40;99.90;;;;;;5076168;28;20239;-72
2023/08/30 03:36:17;;;;;;;0.50;0.50;;;11.30;99.90;;;;;;5074987;28;20228;-72
2023/08/30 03:38:43;;;;;;;0.43;0.43;;;11.30;99.90;;;;;;5074845;28;20220;-73
2023/08/30 03:41:10;;;;;;;1.27;0.90;;;11.30;99.90;;;;;;5076597;28;20252;-73
2023/08/30 03:43:36;;;;;;;0.50;0.50;;;11.30;99.90;;;;;;5076128;28;20193;-73
2023/08/30 03:46:02;;;;;;;0.50;0.50;;;11.40;99.90;;;;;;5076270;28;20276;-72
2023/08/30 03:48:29;;;;;;;0.47;0.47;;;11.40;99.90;;;;;;5075146;28;20228;-72
2023/08/30 03:50:55;;;;;;;0.60;0.60;;;11.40;99.90;;;;;;5075983;28;20584;-72
2023/08/30 03:53:21;;;;;;;0.60;0.60;;;11.40;99.90;;;;;;5074306;28;20208;-73
2023/08/30 03:55:47;;;;;;;0.55;0.55;;;11.50;99.90;;;;;;5075827;28;20180;-72
2023/08/30 03:58:12;;;;;;;0.40;0.40;;;11.40;99.90;;;;;;5075802;28;20197;-72
2023/08/30 04:00:39;;;;;;;0.77;0.77;;;11.50;99.90;;;;;;5073972;28;20201;-72
2023/08/30 04:03:08;;;;;;;0.50;0.50;;;11.50;99.90;;;;;;5075773;28;20250;-72
2023/08/30 04:05:35;;;;;;;0.63;0.63;;;11.50;99.90;;;;;;5075409;28;20188;-73
2023/08/30 04:08:05;;;;;;;0.50;0.50;;;11.60;99.90;;;;;;5075456;28;20181;-73
2023/08/30 04:10:37;;;;;;;0.50;0.50;;;11.60;99.90;;;;;;5074777;28;20596;-73
2023/08/30 04:13:07;;;;;;;0.50;0.50;;;11.60;99.90;;;;;;5075625;28;20605;-73
2023/08/30 04:15:36;;;;;;;0.52;0.52;;;11.60;99.90;;;;;;5056999;28;20254;-72
2023/08/30 04:18:03;;;;;;;0.50;0.50;;;11.70;99.90;;;;;;5074301;28;20201;-73
2023/08/30 04:20:29;;;;;;;0.50;0.50;;;11.70;99.90;;;;;;5075578;28;20235;-72
2023/08/30 04:22:56;;;;;;;0.70;0.70;;;11.70;99.90;;;;;;5075356;28;20280;-72
2023/08/30 04:25:22;;;;;;;0.50;0.50;;;11.70;99.90;;;;;;5075033;28;20196;-73
2023/08/30 04:27:48;;;;;;;0.60;0.60;;;11.80;99.90;;;;;;5075420;28;20273;-72
2023/08/30 04:30:15;;;;;;;0.50;0.50;;;11.80;99.90;;;;;;5057397;28;20727;-73
2023/08/30 04:32:40;;;;;;;0.52;0.52;;;11.80;99.90;;;;;;5075287;28;20221;-76
2023/08/30 04:35:06;;;;;;;0.40;0.40;;;11.90;99.90;;;;;;5086663;28;20211;-76
2023/08/30 04:37:32;;;;;;;0.52;0.52;;;11.90;99.90;;;;;;5077015;28;20245;-76
2023/08/30 04:39:58;;;;;;;0.50;0.50;;;11.90;99.90;;;;;;5077040;28;20196;-76
2023/08/30 04:42:24;;;;;;;0.50;0.50;;;11.90;99.90;;;;;;5094859;28;20196;-76
2023/08/30 04:44:51;;;;;;;0.60;0.60;;;12.00;99.90;;;;;;5077248;28;20701;-76
2023/08/30 04:47:17;;;;;;;0.50;0.50;;;12.10;99.90;;;;;;5077297;28;20249;-76
2023/08/30 04:49:42;;;;;;;0.45;0.45;;;12.10;99.90;;;;;;5076772;28;20212;-76
2023/08/30 04:52:08;;;;;;;0.50;0.50;;;12.10;99.90;;;;;;5094916;28;20753;-76
2023/08/30 04:54:34;;;;;;;0.77;0.77;;;12.20;99.90;;;;;;5094487;28;20196;-76
2023/08/30 04:56:59;;;;;;;0.40;0.40;;;12.20;99.90;;;;;;5079256;28;20295;-76
2023/08/30 04:59:25;;;;;;;0.50;0.50;;;12.20;99.90;;;;;;5056830;28;20192;-76
2023/08/30 05:01:51;;;;;;;0.40;0.40;;;12.30;99.90;;;;;;5056537;28;20232;-76
2023/08/30 05:04:17;;;;;;;0.47;0.47;;;12.30;99.90;;;;;;5074523;28;20196;-76
2023/08/30 05:06:43;;;;;;;0.40;0.40;;;12.30;99.90;;;;;;5075306;28;20193;-76
2023/08/30 05:09:09;;;;;;;0.47;0.47;;;12.30;99.90;;;;;;5074498;28;20286;-77
2023/08/30 05:11:35;;;;;;;0.50;0.50;;;12.40;99.90;;;;;;5073927;28;20643;-76
2023/08/30 05:14:01;;;;;;;0.47;0.47;;;12.40;99.90;;;;;;5056668;28;20275;-76
2023/08/30 05:16:26;;;;;;;0.47;0.47;;;12.40;99.90;;;;;;5074202;28;20193;-76
2023/08/30 05:18:52;;;;;;;0.85;0.57;;;12.40;99.90;;;;;;5073891;28;20208;-76
2023/08/30 05:21:18;;;;;;;0.40;0.40;;;12.50;99.90;;;;;;5074544;28;20184;-76
2023/08/30 05:23:44;;;;;;;0.40;0.40;;;12.50;99.90;;;;;;5072418;28;20231;-76
2023/08/30 05:26:12;;;;;;;0.40;0.40;;;12.60;99.90;;;;;;5074036;28;20193;-77
2023/08/30 05:28:38;;;;;;;0.50;0.50;;;12.80;99.90;;;;;;5055296;28;20231;-76
2023/08/30 05:31:04;;;;;;;0.50;0.50;;;12.90;99.90;;;;;;5067199;28;20192;-76
2023/08/30 05:33:30;;;;;;;0.50;0.50;;;13.00;99.90;;;;;;5076057;28;20222;-76
2023/08/30 05:35:55;;;;;;;0.40;0.40;;;13.00;99.90;;;;;;5093866;28;20188;-75
2023/08/30 05:38:21;;;;;;;0.50;0.50;;;13.10;99.90;;;;;;5093852;28;20196;-76
2023/08/30 05:40:47;;;;;;;0.50;0.50;;;13.20;99.90;;;;;;5076320;28;20196;-76
2023/08/30 05:43:13;;;;;;;0.50;0.50;;;13.20;99.90;;;;;;5076318;28;20586;-74
2023/08/30 05:45:38;;;;;;;0.60;0.60;;;13.20;99.90;;;;;;5087606;28;20551;-73
2023/08/30 05:48:05;;;;;;;0.50;0.50;;;13.20;99.90;;;;;;5073937;28;20293;-73
2023/08/30 05:50:31;;;;;;;0.40;0.40;;;13.20;99.90;;;;;;5073421;28;20584;-73
2023/08/30 05:52:56;;;;;;;2.28;0.93;;;13.30;99.90;;;;;;5055637;28;20193;-73
2023/08/30 05:55:22;;;;;;;0.90;0.90;;;13.30;99.90;;;;;;5056025;28;20873;-73
2023/08/30 05:57:48;;;;;;;1.40;1.30;;;13.50;99.90;;;;;;5073816;28;20258;-73
2023/08/30 06:00:14;;;;;;;0.55;0.55;;;13.70;99.90;;;;;;5073530;28;20239;-73
2023/08/30 06:02:41;;;;;;;0.40;0.40;;;13.70;99.90;;;;;;5052002;28;20237;-74
2023/08/30 06:05:07;;;;;;;0.70;0.70;;;13.90;99.90;;;;;;5053644;28;20205;-73
2023/08/30 06:07:33;;;;;;;0.40;0.40;;;13.90;99.90;;;;;;5053378;28;20288;-73
2023/08/30 06:09:59;;;;;;;1.17;0.60;;;14.20;99.90;;;;;;5053355;28;20280;-74
2023/08/30 06:12:25;;;;;;;0.40;0.40;;;14.40;99.90;;;;;;5052681;28;20589;-74
2023/08/30 06:14:52;;;;;;;0.45;0.45;;;14.60;99.90;;;;;;5053786;28;20607;-74
2023/08/30 06:17:21;;;;;;;0.50;0.50;;;14.70;99.90;;;;;;5053511;28;20209;-73
2023/08/30 06:19:47;;;;;;;0.40;0.40;;;14.80;99.90;;;;;;5053297;28;20198;-74
2023/08/30 06:24:52;;;;;;;0.47;0.47;;;15.00;99.90;;;;;;5111064;23;20239;-72
2023/08/30 06:27:18;;;;;;;3.00;1.10;;;15.00;99.90;;;;;;5012853;28;20205;-72
2023/08/30 06:29:43;;;;;;;0.40;0.40;;;15.00;99.90;;;;;;5012562;28;20245;-73
2023/08/30 06:32:09;;;;;;;0.30;0.30;;;15.00;99.90;;;;;;5012761;28;20195;-72
2023/08/30 06:34:34;;;;;;;0.50;0.50;;;15.20;99.90;;;;;;5012729;28;20622;-72
2023/08/30 06:37:00;;;;;;;0.40;0.40;;;15.30;99.90;;;;;;5012555;28;20197;-73
2023/08/30 06:39:31;;;;;;;0.40;0.40;;;15.20;99.90;;;;;;5010103;28;20199;-72
2023/08/30 06:41:57;;;;;;;0.30;0.30;;;15.10;99.90;;;;;;4994811;28;20198;-72
2023/08/30 06:44:23;;;;;;;1.17;1.00;;;14.90;99.90;;;;;;5012482;28;20206;-73
2023/08/30 06:46:48;;;;;;;0.40;0.40;;;14.90;99.90;;;;;;5012575;28;20187;-70
2023/08/30 06:49:14;;;;;;;0.30;0.30;;;15.00;99.90;;;;;;4994392;28;20211;-73
2023/08/30 06:51:40;;;;;;;0.30;0.30;;;15.10;99.90;;;;;;4994735;28;20203;-73
2023/08/30 06:54:05;;;;;;;0.35;0.35;;;15.30;99.90;;;;;;5012919;28;20215;-73
2023/08/30 06:56:31;;;;;;;0.50;0.50;;;15.50;99.90;;;;;;4994398;28;20203;-72
2023/08/30 06:58:57;;;;;;;0.45;0.45;;;15.60;99.90;;;;;;5013146;28;20719;-72
2023/08/30 07:01:22;;;;;;;0.40;0.40;;;15.60;99.90;;;;;;5012605;28;20249;-73
2023/08/30 07:03:48;;;;;;;0.38;0.38;;;15.70;99.90;;;;;;5012920;28;20191;-74
2023/08/30 07:06:14;;;;;;;0.30;0.30;;;15.70;99.90;;;;;;5012236;28;20186;-72
2023/08/30 07:08:39;;;;;;;0.40;0.40;;;15.70;99.90;;;;;;4994231;28;20241;-73
2023/08/30 07:11:05;;;;;;;1.00;0.50;;;15.60;99.90;;;;;;5012357;28;20198;-73
2023/08/30 07:13:31;;;;;;;1.17;0.63;;;15.50;99.90;;;;;;4995226;28;20203;-73
2023/08/30 07:15:56;;;;;;;3.05;0.75;;;15.50;99.90;;;;;;5012399;28;20709;-75
2023/08/30 07:18:24;;;;;;;0.47;0.38;;;15.50;99.90;;;;;;5012304;28;20221;-75
2023/08/30 07:20:50;;;;;;;0.88;0.63;;;15.50;99.90;;;;;;5012559;28;20930;-73
2023/08/30 07:23:16;;;;;;;0.60;0.60;;;15.60;99.90;;;;;;5011816;28;20265;-74
2023/08/30 07:25:41;;;;;;;0.50;0.50;;;15.70;99.90;;;;;;5011091;28;20286;-73
2023/08/30 07:28:08;;;;;;;0.30;0.30;;;15.80;99.90;;;;;;5010917;28;20198;-73
2023/08/30 07:30:35;;;;;;;0.40;0.40;;;16.00;99.90;;;;;;4994873;28;20226;-72
2023/08/30 07:33:00;;;;;;;0.30;0.30;;;16.00;99.90;;;;;;5012408;28;20662;-73
2023/08/30 07:35:53;;;;;;;0.30;0.30;;;16.00;99.90;;;;;;5012250;28;20202;-74
2023/08/30 07:41:17;;;;;;;0.50;0.50;;;15.90;99.90;;;;;;4992276;28;20242;-72
2023/08/30 07:43:43;;;;;;;0.30;0.30;;;16.00;99.90;;;;;;4992683;28;20228;-77
2023/08/30 07:46:08;;;;;;;0.77;0.77;;;16.00;99.90;;;;;;5011039;28;20214;-77
2023/08/30 07:48:34;;;;;;;0.40;0.40;;;15.90;99.90;;;;;;5011738;28;20237;-77
2023/08/30 07:51:00;;;;;;;0.40;0.40;;;15.90;99.90;;;;;;5014213;28;20693;-76
2023/08/30 07:56:57;;;;;;;0.30;0.30;;;15.90;99.90;;;;;;4954505;28;20201;-74
2023/08/30 07:59:22;;;;;;;0.40;0.40;;;15.90;99.90;;;;;;5012462;28;20211;-73
2023/08/30 08:01:48;;;;;;;0.50;0.50;;;15.90;99.90;;;;;;5015701;28;20618;-72
2023/08/30 08:04:13;;;;;;;0.30;0.30;;;16.10;99.90;;;;;;5015542;28;20193;-72
2023/08/30 08:06:39;;;;;;;0.73;0.50;;;16.20;99.90;;;;;;5017502;28;20237;-73
2023/08/30 08:09:07;;;;;;;1.70;0.82;;;16.30;99.90;;;;;;5035108;28;20214;-73
2023/08/30 08:11:33;;;;;;;0.30;0.30;;;16.40;99.90;;;;;;5022674;28;20249;-71
2023/08/30 08:13:59;;;;;;;0.35;0.35;;;16.50;99.90;;;;;;5015512;28;20190;-72
2023/08/30 08:16:24;;;;;;;0.30;0.30;;;16.60;99.90;;;;;;5015203;28;20607;-72
2023/08/30 08:18:51;;;;;;;0.55;0.40;;;16.50;99.90;;;;;;5015303;28;20206;-72
2023/08/30 08:21:18;;;;;;;0.22;0.22;;;16.60;99.90;;;;;;5015335;28;20286;-73
2023/08/30 08:23:43;;;;;;;0.25;0.25;;;16.70;99.90;;;;;;5014761;28;20239;-74
2023/08/30 08:26:09;;;;;;;2.60;0.45;;;16.50;99.90;;;;;;5015251;28;20544;-73
2023/08/30 08:28:35;;;;;;;1.05;0.95;;;16.50;99.90;;;;;;5015041;28;20705;-74
2023/08/30 08:31:00;;;;;;;1.02;0.60;;;16.60;99.90;;;;;;5015213;28;20190;-74
2023/08/30 08:33:26;;;;;;;0.30;0.30;;;16.60;99.90;;;;;;5014191;28;20187;-73
2023/08/30 08:35:52;;;;;;;0.45;0.45;;;16.70;99.90;;;;;;5015203;28;20195;-73
2023/08/30 08:38:18;;;;;;;0.38;0.38;;;16.80;99.90;;;;;;5014986;28;20228;-73
2023/08/30 08:40:43;;;;;;;0.20;0.20;;;17.10;99.90;;;;;;5015206;28;20669;-73
2023/08/30 08:43:13;;;;;;;0.20;0.20;;;17.40;99.90;;;;;;4997413;28;20191;-73
2023/08/30 08:45:39;;;;;;;0.40;0.40;;;17.50;99.90;;;;;;5014572;28;20258;-74
2023/08/30 08:48:06;;;;;;;0.28;0.28;;;17.70;99.90;;;;;;5014899;28;20725;-73
2023/08/30 08:50:32;;;;;;;0.20;0.20;;;17.70;99.90;;;;;;5014619;28;20628;-74
2023/08/30 08:53:00;;;;;;;1.48;0.77;;;18.00;99.90;;;;;;5015149;28;20199;-74
2023/08/30 08:55:29;;;;;;;0.38;0.38;;;18.60;99.90;;;;;;5014967;28;20280;-74
2023/08/30 08:57:57;;;;;;;1.02;0.68;;;18.90;99.90;;;;;;4997377;28;20199;-74
2023/08/30 09:00:24;;;;;;;0.35;0.35;;;19.00;99.90;;;;;;4996853;28;20199;-74
2023/08/30 09:02:51;;;;;;;0.30;0.30;;;18.80;99.90;;;;;;5013642;28;20249;-74
2023/08/30 09:05:19;;;;;;;0.20;0.20;;;18.80;99.90;;;;;;4996374;28;20238;-73
2023/08/30 09:07:45;;;;;;;0.28;0.28;;;18.80;99.90;;;;;;5014423;28;20194;-74
2023/08/30 09:10:11;;;;;;;0.52;0.52;;;18.80;99.90;;;;;;5013974;28;20214;-74
2023/08/30 09:12:36;;;;;;;0.20;0.20;;;19.00;99.90;;;;;;5014152;28;20191;-74
2023/08/30 09:15:04;;;;;;;0.20;0.20;;;19.40;99.90;;;;;;5013801;28;20554;-74
2023/08/30 09:17:37;;;;;;;0.38;0.38;;;19.60;99.90;;;;;;5013618;28;20466;-73
2023/08/30 09:20:11;;;;;;;0.40;0.40;;;19.50;99.90;;;;;;5014012;28;20194;-74
2023/08/30 09:22:40;;;;;;;0.25;0.25;;;19.40;99.90;;;;;;5014188;28;20199;-74
2023/08/30 09:25:23;;;;;;;0.25;0.25;;;19.20;99.90;;;;;;5013975;28;20544;-74
2023/08/30 09:27:49;;;;;;;0.40;0.40;;;19.30;99.90;;;;;;5014079;28;20277;-73
2023/08/30 09:30:21;;;;;;;0.30;0.30;;;19.50;99.90;;;;;;5014020;28;20599;-73
2023/08/30 09:32:46;;;;;;;0.22;0.22;;;19.70;99.90;;;;;;5014179;28;20203;-74
2023/08/30 09:35:15;;;;;;;0.20;0.20;;;19.80;99.90;;;;;;5013265;28;20547;-73
2023/08/30 09:37:40;;;;;;;0.40;0.38;;;19.60;99.90;;;;;;4996409;28;20294;-74
2023/08/30 09:40:06;;;;;;;0.20;0.20;;;19.50;99.90;;;;;;4996561;28;20313;-73
2023/08/30 09:42:32;;;;;;;0.20;0.20;;;19.40;99.90;;;;;;5013822;28;20245;-74
2023/08/30 09:44:58;;;;;;;0.30;0.30;;;19.40;99.90;;;;;;5013884;28;20194;-74
2023/08/30 09:47:28;;;;;;;0.20;0.20;;;19.40;99.90;;;;;;5013737;28;20221;-73
2023/08/30 09:49:55;;;;;;;0.20;0.20;;;19.30;99.90;;;;;;5013646;28;20206;-74
2023/08/30 09:52:25;;;;;;;0.20;0.20;;;19.20;99.90;;;;;;5013614;28;20648;-73
2023/08/30 09:54:52;;;;;;;0.63;0.60;;;18.90;99.90;;;;;;5013589;28;20206;-74
2023/08/30 09:57:19;;;;;;;0.20;0.20;;;19.00;99.90;;;;;;5013829;28;20183;-74
2023/08/30 09:59:45;;;;;;;0.40;0.40;;;19.00;99.90;;;;;;5013687;28;20242;-73
2023/08/30 10:02:12;;;;;;;0.82;0.50;;;19.10;99.90;;;;;;5013643;28;20197;-74
2023/08/30 10:04:43;;;;;;;0.22;0.22;;;19.20;99.90;;;;;;5013543;28;20747;-74
2023/08/30 10:07:10;;;;;;;0.30;0.30;;;19.20;99.90;;;;;;5013833;28;20205;-74
2023/08/30 10:09:39;;;;;;;0.20;0.20;;;19.10;99.90;;;;;;5012595;28;20213;-73
2023/08/30 10:12:06;;;;;;;0.47;0.35;;;19.10;99.90;;;;;;5012344;28;20213;-73
2023/08/30 10:14:31;;;;;;;0.30;0.30;;;19.30;99.90;;;;;;5013245;28;20187;-73
2023/08/30 10:17:05;;;;;;;0.57;0.30;;;19.50;99.90;;;;;;5013478;28;20201;-73
2023/08/30 10:19:31;;;;;;;0.30;0.30;;;19.90;99.90;;;;;;5013198;28;20772;-74
2023/08/30 10:22:08;;;;;;;0.30;0.30;;;19.80;99.90;;;;;;5013296;28;20654;-73
2023/08/30 10:25:04;;;;;;;0.28;0.28;;;20.00;99.90;;;;;;5013072;28;20241;-75
2023/08/30 10:27:31;;;;;;;0.30;0.30;;;19.90;99.90;;;;;;4993248;28;20500;-73
2023/08/30 10:30:01;;;;;;;0.30;0.30;;;19.60;99.90;;;;;;5013168;28;20233;-75
2023/08/30 10:32:26;;;;;;;0.10;0.10;;;19.60;99.90;;;;;;4995364;28;20297;-74
2023/08/30 10:34:52;;;;;;;0.20;0.20;;;19.60;99.90;;;;;;5012906;28;20337;-74
2023/08/30 10:37:27;;;;;;;0.30;0.30;;;19.40;99.90;;;;;;5013176;28;20546;-73
2023/08/30 10:39:52;;;;;;;0.15;0.15;;;19.40;99.90;;;;;;5012925;28;20201;-74
2023/08/30 10:42:23;;;;;;;0.25;0.25;;;19.30;99.90;;;;;;5012948;28;20199;-73
2023/08/30 10:44:59;;;;;;;0.22;0.22;;;19.20;99.90;;;;;;5012903;28;20205;-73
2023/08/30 10:47:30;;;;;;;0.30;0.30;;;19.00;99.90;;;;;;4995079;28;20206;-73
2023/08/30 10:49:58;;;;;;;1.17;0.80;;;18.90;99.90;;;;;;5013400;28;20228;-75
2023/08/30 10:52:24;;;;;;;0.25;0.25;;;18.80;99.90;;;;;;4995087;28;20253;-75
2023/08/30 10:55:25;;;;;;;0.20;0.20;;;19.00;99.90;;;;;;5012654;28;20199;-75
2023/08/30 10:58:02;;;;;;;0.73;0.40;;;19.20;99.90;;;;;;4995330;28;20198;-75
2023/08/30 11:00:30;;;;;;;0.65;0.65;;;19.40;99.90;;;;;;5012591;28;20206;-74
2023/08/30 11:02:56;;;;;;;0.20;0.20;;;19.50;99.90;;;;;;4995973;28;20202;-74
2023/08/30 11:05:25;;;;;;;0.30;0.30;;;19.50;99.90;;;;;;5013045;28;20661;-74
2023/08/30 11:07:51;;;;;;;0.20;0.20;;;19.70;99.90;;;;;;5013091;28;20222;-74
2023/08/30 11:10:18;;;;;;;0.20;0.20;;;20.00;99.90;;;;;;4994961;28;20211;-74
2023/08/30 11:12:44;;;;;;;0.30;0.30;;;20.30;99.90;;;;;;5012342;28;20637;-74
2023/08/30 11:15:12;;;;;;;0.20;0.20;;;20.60;99.90;;;;;;5012675;28;20199;-74
2023/08/30 11:17:39;;;;;;;0.20;0.20;;;20.90;99.90;;;;;;5012965;28;20226;-74
2023/08/30 11:20:07;;;;;;;0.20;0.20;;;21.10;99.90;;;;;;5012782;28;20203;-74
2023/08/30 11:22:43;;;;;;;0.20;0.20;;;20.80;99.90;;;;;;5012709;28;20257;-74
2023/08/30 11:25:10;;;;;;;0.20;0.20;;;20.70;99.90;;;;;;5012969;28;20237;-74
2023/08/30 11:27:39;;;;;;;0.30;0.30;;;20.80;99.90;;;;;;5016397;28;20566;-74
2023/08/30 11:30:06;;;;;;;0.43;0.28;;;20.90;99.90;;;;;;4998302;28;20639;-73
2023/08/30 11:32:35;;;;;;;0.20;0.20;;;20.60;99.90;;;;;;5016059;28;20602;-74
2023/08/30 11:35:00;;;;;;;0.20;0.20;;;20.70;99.90;;;;;;5015955;28;20281;-74
2023/08/30 11:37:28;;;;;;;0.40;0.40;;;20.90;99.90;;;;;;5016225;28;20218;-74
2023/08/30 11:39:58;;;;;;;0.32;0.32;;;21.20;99.90;;;;;;5016174;28;20201;-75
2023/08/30 11:42:25;;;;;;;0.38;0.38;;;21.50;99.90;;;;;;5015866;28;20657;-75
2023/08/30 11:44:51;;;;;;;0.20;0.20;;;21.80;99.90;;;;;;5015986;28;20658;-75
2023/08/30 11:47:22;;;;;;;0.57;0.57;;;21.80;99.90;;;;;;5016158;28;20203;-75
2023/08/30 11:49:56;;;;;;;0.40;0.40;;;21.80;99.90;;;;;;5015754;28;20551;-74
2023/08/30 11:52:23;;;;;;;0.50;0.50;;;22.20;99.90;;;;;;4998152;28;20209;-75
2023/08/30 11:54:49;;;;;;;0.20;0.20;;;23.00;99.90;;;;;;5016138;28;20190;-73
2023/08/30 11:57:15;;;;;;;0.35;0.35;;;23.70;99.90;;;;;;5016312;28;20229;-74
2023/08/30 11:59:41;;;;;;;0.20;0.20;;;23.80;99.90;;;;;;5015904;28;20195;-69
2023/08/30 12:02:07;;;;;;;0.20;0.20;;;23.30;99.90;;;;;;5015427;28;20199;-70
2023/08/30 12:04:43;;;;;;;0.20;0.20;;;22.90;99.90;;;;;;5014955;28;20211;-71
2023/08/30 12:07:10;;;;;;;0.30;0.30;;;22.80;99.90;;;;;;5015368;28;20194;-71
2023/08/30 12:09:36;;;;;;;0.15;0.15;;;22.30;99.90;;;;;;5014805;28;20304;-71
2023/08/30 12:12:12;;;;;;;0.10;0.10;;;22.10;99.90;;;;;;5014914;28;20230;-72
2023/08/30 12:14:38;;;;;;;0.20;0.20;;;21.70;99.90;;;;;;5014906;28;20187;-72
2023/08/30 12:17:04;;;;;;;0.40;0.40;;;21.30;99.90;;;;;;5014898;28;20662;-70
2023/08/30 12:19:31;;;;;;;0.30;0.30;;;21.00;99.90;;;;;;4997061;28;20203;-70
2023/08/30 12:22:07;;;;;;;0.20;0.20;;;21.10;99.90;;;;;;5014669;28;20249;-71
2023/08/30 12:24:43;;;;;;;0.20;0.20;;;21.30;99.90;;;;;;5014150;28;20232;-71
2023/08/30 12:27:09;;;;;;;0.32;0.32;;;21.60;99.90;;;;;;5014562;28;20642;-70
2023/08/30 12:29:35;;;;;;;0.30;0.30;;;21.70;99.90;;;;;;4996759;28;20213;-71
2023/08/30 12:32:00;;;;;;;0.20;0.20;;;21.80;99.90;;;;;;5014610;28;20274;-71
2023/08/30 12:34:26;;;;;;;0.38;0.30;;;21.90;99.90;;;;;;5014350;28;20213;-71
2023/08/30 12:36:52;;;;;;;0.30;0.30;;;21.80;99.90;;;;;;5014468;28;20241;-71
2023/08/30 12:39:17;;;;;;;0.35;0.35;;;21.40;99.90;;;;;;4997150;28;20229;-71
2023/08/30 12:41:43;;;;;;;1.65;0.52;;;21.10;99.90;;;;;;5014210;28;20207;-71
2023/08/30 12:44:09;;;;;;;0.20;0.20;;;21.10;99.90;;;;;;5014425;28;20195;-71
2023/08/30 12:46:34;;;;;;;1.30;0.60;;;21.20;99.90;;;;;;5014245;28;20654;-70
2023/08/30 12:49:00;;;;;;;0.20;0.20;;;21.30;99.90;;;;;;5014184;28;20708;-70
2023/08/30 12:51:26;;;;;;;0.60;0.47;;;21.20;99.90;;;;;;5014071;28;20187;-70
2023/08/30 12:53:52;;;;;;;0.22;0.22;;;21.00;99.90;;;;;;5014611;28;20195;-72
2023/08/30 12:56:17;;;;;;;0.20;0.20;;;21.10;99.90;;;;;;5014362;28;20199;-72
2023/08/30 12:58:43;;;;;;;0.38;0.38;;;21.00;99.90;;;;;;4996614;28;20203;-72